Météo des aéroports (METAR) proches de Ticheville

 

LFRG - St Gatien, France
Distance from station: N 52km
Mise à jour: 15/10/2018 18:00
clair
clair
 Wind from NNO
Vent: NNO 7 km/h
Température: 18°C
Point de rosée: 14°C
Humidité: 78%
Baromètre: 1011 hPa
Résumé: clair
Visibility: greater than 10 km
2018/10/15 16:00 LFRG 151600Z AUTO 33004KT 300V360 CAVOK 18/14 Q1011 NOSIG
LFRK - Caen/Carpiquet(A, France
Distance from station: ONO 60km
Mise à jour: 15/10/2018 18:00
clair
clair
 Wind from calm
Vent: calme
Température: 20°C
Point de rosée: 14°C
Humidité: 69%
Baromètre: 1010 hPa
Résumé: clair
Visibility: greater than 10 km
2018/10/15 16:00 LFRK 151600Z AUTO 00000KT CAVOK 20/14 Q1010 NOSIG
 
LFOH - Le Havre/Octevil, France
Distance from station: NNO 69km
Mise à jour: 15/10/2018 18:00
clair
clair
 Wind from N
Vent: N 19 km/h
Température: 16°C
Point de rosée: 13°C
Humidité: 83%
Baromètre: 1011 hPa
Résumé: clair
Visibility: greater than 10 km
2018/10/15 16:00 LFOH 151600Z AUTO 36010KT CAVOK 16/13 Q1011 NOSIG
LFOE - Evreux/Fauville, France
Distance from station: E 70km
Mise à jour: 15/10/2018 18:00
clair
clair
 Wind from SSE
Vent: SSE 13 km/h
Température: 24°C
Point de rosée: 8°C
Humidité: 36%
Baromètre: 1011 hPa
Résumé: clair
Visibility: greater than 10 km
2018/10/15 16:00 LFOE 151600Z AUTO 16007KT 120V180 CAVOK 24/08 Q1011 NOSIG
 
LFOP - Rouen/Boos (aut), France
Distance from station: NE 83km
Mise à jour: 15/10/2018 18:00
clair
clair
 Wind from E
Vent: E 4 km/h
Température: 23°C
Point de rosée: 12°C
Humidité: 50%
Baromètre: 1011 hPa
Résumé: clair
Visibility: greater than 10 km
2018/10/15 16:00 LFOP 151600Z AUTO 08002KT CAVOK 23/12 Q1011 NOSIG
LFRM - Le Mans/Arnage(A, France
Distance from station: S 107km
Mise à jour: 15/10/2018 18:00
clair
clair
 Wind from S
Vent: S 9 km/h
Température: 22°C
Point de rosée: 12°C
Humidité: 53%
Baromètre: 1009 hPa
Résumé: clair
Visibility: greater than 10 km
2018/10/15 16:00 LFRM 151600Z AUTO 17005KT 140V210 CAVOK 22/12 Q1009 NOSIG